« 定点 富山空港 2016/11/23 wed | トップページ | 百里基地創設50周年記念航空祭【フライト編1】 百里飛行場 2016/11/27 sun »

2016/11/28

百里基地創設50周年記念航空祭【B.I.編】 百里飛行場 2016/11/27 sun

前日の特別公開は、快晴に恵まれてよかったネー! と、指をくわえながら曇天ながら、百里参戦。今回無理せずな時間で向かったので、入場からず~と滑走路脇の草地での観戦です。

RJAH 270200Z 33003KT 9999 FEW010 BKN030 BKN100 11/09 Q1015

20161127_rjah_bi00

帰りの渋滞対策からか、ブルーインパルスの展示は午前中。

20161127_rjah_bi01

RWは03 はるか向こうでスモークチェック

20161127_rjah_bi02

視程は取れていますが、雲底が低い

20161127_rjah_bi03

20161127_rjah_bi04

ほぼ滑走路エンドなので、いつもと違った視点で・・

20161127_rjah_bi05

20161127_rjah_bi06

手前は、21ラストチャンスに陣取る301SQ列線。

20161127_rjah_bi07

ダイヤモンドテイクオフ&ダーティーターン

20161127_rjah_bi08

向かって右が#5 左が#6

20161127_rjah_bi09

#6ロール前

20161127_rjah_bi10

#5がキューバンへ駆け上ります

20161127_rjah_bi11

ロールオン・テイクオフ

#6のロールは終わってしもおた・・

20161127_rjah_bi12

ローアングル・キューバン

20161127_rjah_bi13

上がってみたものの、思った以上に雲が低く、ストップミッションして、演目を検討中

20161127_rjah_bi14

結果、5区分 航過飛行に

20161127_rjah_bi15

デルタ・ローパス

20161127_rjah_bi16

うらも厳しい状況

20161127_rjah_bi17

20161127_rjah_bi18

20161127_rjah_bi19

リーダーズ・ベネフィット・ローパス

20161127_rjah_bi20

レーストラックに移行して・・ 正面からに

20161127_rjah_bi21

20161127_rjah_bi22

ポイント・スター・ローパス

20161127_rjah_bi23

20161127_rjah_bi24

スワン・ローパス

20161127_rjah_bi25

北方面が厳しいようで、南からの右回りに

20161127_rjah_bi26

グランドクロス・ローパス

20161127_rjah_bi27

ピラミッド・ローパス

20161127_rjah_bi28

20161127_rjah_bi29

フェニックス・ローパス

20161127_rjah_bi30

最後は、クリスマスツリー

20161127_rjah_bi31

少し右に振られて、この場所では斜めから見ることに

20161127_rjah_bi32

20161127_rjah_bi33

やっばり正面から見て、スモークのモクモク感が魅力なんですがね

20161127_rjah_bi34_2

このまま、ゲット・イン・トレイル

20161127_rjah_bi35

編隊が開いていくさまが、美しかったです。

20161127_rjah_bi36t465726

20161127_rjah_bi37t465726

#1 46-5726 T-4 11SQ

20161127_rjah_bi38t465726

#2 46-5728 T-4 11SQ

20161127_rjah_bi39t465731

#3 46-5731 T-4 11SQ

20161127_rjah_bi40t465729

20161127_rjah_bi41t465729

#4 46-5729 T-4 11SQ

20161127_rjah_bi42t465730

#5 46-5730 T-4 11SQ

20161127_rjah_bi43t465725

#6 46-5725 T-4 11SQ

20161127_rjah_bi44

後から失礼・・

RJAH 270300Z 33003KT 9999 FEW010 BKN025 BKN100 11/09 Q1013

20161127_rjah_bi45

午後にエプロンに向かいました。#3の位置が微妙

20161127_rjah_bi46t265805

予備 26-5805 T-4 11SQ

20161127_rjah_bi47

列線を眺めてますが、壁が厚い

20161127_rjah_bi48_2

ブルーのサイン会は、盛況です。

|

« 定点 富山空港 2016/11/23 wed | トップページ | 百里基地創設50周年記念航空祭【フライト編1】 百里飛行場 2016/11/27 sun »

BI」カテゴリの記事

百里飛行場」カテゴリの記事

コメント

コメントを書く



(ウェブ上には掲載しません)


コメントは記事投稿者が公開するまで表示されません。



トラックバック


この記事へのトラックバック一覧です: 百里基地創設50周年記念航空祭【B.I.編】 百里飛行場 2016/11/27 sun:

« 定点 富山空港 2016/11/23 wed | トップページ | 百里基地創設50周年記念航空祭【フライト編1】 百里飛行場 2016/11/27 sun »